sensor_id;sensor_type;location;lat;lon;timestamp;P1;durP1;ratioP1;P2;durP2;ratioP2
19946;SDS011;10135;50.702;7.276;2023-05-07T05:32:35;1.50;;;1.50;;
19946;SDS011;10135;50.702;7.276;2023-05-07T05:34:35;2.60;;;1.80;;
19946;SDS011;10135;50.702;7.276;2023-05-07T05:36:36;1.70;;;1.60;;
19946;SDS011;10135;50.702;7.276;2023-05-07T05:38:37;1.73;;;1.63;;
19946;SDS011;10135;50.702;7.276;2023-05-07T05:40:37;1.70;;;1.60;;
19946;SDS011;10135;50.702;7.276;2023-05-07T05:42:38;4.07;;;1.93;;
19946;SDS011;10135;50.702;7.276;2023-05-07T05:44:39;1.40;;;1.40;;
19946;SDS011;10135;50.702;7.276;2023-05-07T05:46:40;1.90;;;1.80;;
19946;SDS011;10135;50.702;7.276;2023-05-07T05:48:40;1.70;;;1.60;;
19946;SDS011;10135;50.702;7.276;2023-05-07T05:50:41;1.73;;;1.73;;
19946;SDS011;10135;50.702;7.276;2023-05-07T05:52:42;1.93;;;1.70;;
19946;SDS011;10135;50.702;7.276;2023-05-07T05:54:43;1.63;;;1.63;;
19946;SDS011;10135;50.702;7.276;2023-05-07T05:56:43;2.33;;;1.70;;
19946;SDS011;10135;50.702;7.276;2023-05-07T05:58:44;1.80;;;1.70;;
19946;SDS011;10135;50.702;7.276;2023-05-07T06:00:46;1.40;;;1.40;;
19946;SDS011;10135;50.702;7.276;2023-05-07T06:02:48;1.70;;;1.67;;
19946;SDS011;10135;50.702;7.276;2023-05-07T06:04:49;2.43;;;1.63;;
19946;SDS011;10135;50.702;7.276;2023-05-07T06:06:49;1.60;;;1.53;;
19946;SDS011;10135;50.702;7.276;2023-05-07T06:08:50;1.67;;;1.60;;
19946;SDS011;10135;50.702;7.276;2023-05-07T06:10:51;1.40;;;1.30;;
19946;SDS011;10135;50.702;7.276;2023-05-07T06:12:52;1.70;;;1.60;;
19946;SDS011;10135;50.702;7.276;2023-05-07T06:14:52;1.70;;;1.60;;
19946;SDS011;10135;50.702;7.276;2023-05-07T06:16:53;1.67;;;1.60;;
19946;SDS011;10135;50.702;7.276;2023-05-07T06:18:54;1.53;;;1.53;;
19946;SDS011;10135;50.702;7.276;2023-05-07T06:20:54;1.77;;;1.67;;
19946;SDS011;10135;50.702;7.276;2023-05-07T06:22:55;1.63;;;1.63;;
19946;SDS011;10135;50.702;7.276;2023-05-07T06:24:55;1.77;;;1.70;;
19946;SDS011;10135;50.702;7.276;2023-05-07T06:26:56;2.83;;;1.67;;
19946;SDS011;10135;50.702;7.276;2023-05-07T06:28:58;1.67;;;1.57;;
19946;SDS011;10135;50.702;7.276;2023-05-07T06:31:10;1.80;;;1.67;;
19946;SDS011;10135;50.702;7.276;2023-05-07T06:33:12;1.80;;;1.70;;
19946;SDS011;10135;50.702;7.276;2023-05-07T06:35:13;1.80;;;1.70;;
19946;SDS011;10135;50.702;7.276;2023-05-07T06:37:14;1.40;;;1.40;;
19946;SDS011;10135;50.702;7.276;2023-05-07T06:39:14;1.50;;;1.50;;
19946;SDS011;10135;50.702;7.276;2023-05-07T06:41:15;1.50;;;1.40;;
19946;SDS011;10135;50.702;7.276;2023-05-07T06:43:15;1.40;;;1.40;;
19946;SDS011;10135;50.702;7.276;2023-05-07T06:45:16;1.50;;;1.40;;
19946;SDS011;10135;50.702;7.276;2023-05-07T06:47:17;1.60;;;1.50;;
19946;SDS011;10135;50.702;7.276;2023-05-07T06:49:17;1.57;;;1.50;;
19946;SDS011;10135;50.702;7.276;2023-05-07T06:51:18;1.90;;;1.80;;
19946;SDS011;10135;50.702;7.276;2023-05-07T06:53:19;1.80;;;1.70;;
19946;SDS011;10135;50.702;7.276;2023-05-07T06:55:20;1.50;;;1.50;;
19946;SDS011;10135;50.702;7.276;2023-05-07T06:57:20;1.90;;;1.80;;
19946;SDS011;10135;50.702;7.276;2023-05-07T06:59:21;1.40;;;1.40;;
19946;SDS011;10135;50.702;7.276;2023-05-07T07:01:22;1.57;;;1.53;;
19946;SDS011;10135;50.702;7.276;2023-05-07T07:03:22;1.80;;;1.70;;
19946;SDS011;10135;50.702;7.276;2023-05-07T07:05:23;1.60;;;1.60;;
19946;SDS011;10135;50.702;7.276;2023-05-07T07:07:24;1.50;;;1.50;;
19946;SDS011;10135;50.702;7.276;2023-05-07T07:09:24;1.60;;;1.60;;
19946;SDS011;10135;50.702;7.276;2023-05-07T07:11:25;1.70;;;1.40;;
19946;SDS011;10135;50.702;7.276;2023-05-07T07:13:26;1.73;;;1.73;;
19946;SDS011;10135;50.702;7.276;2023-05-07T07:15:26;1.40;;;1.40;;
19946;SDS011;10135;50.702;7.276;2023-05-07T07:17:27;1.40;;;1.40;;
19946;SDS011;10135;50.702;7.276;2023-05-07T07:19:28;1.50;;;1.50;;
19946;SDS011;10135;50.702;7.276;2023-05-07T07:21:29;1.70;;;1.60;;
19946;SDS011;10135;50.702;7.276;2023-05-07T07:23:30;1.63;;;1.53;;
19946;SDS011;10135;50.702;7.276;2023-05-07T07:25:31;2.90;;;1.80;;
19946;SDS011;10135;50.702;7.276;2023-05-07T07:27:32;2.03;;;1.60;;
19946;SDS011;10135;50.702;7.276;2023-05-07T07:29:32;1.90;;;1.80;;
19946;SDS011;10135;50.702;7.276;2023-05-07T07:31:33;1.40;;;1.40;;
19946;SDS011;10135;50.702;7.276;2023-05-07T07:33:34;1.80;;;1.70;;
19946;SDS011;10135;50.702;7.276;2023-05-07T07:35:34;1.77;;;1.77;;
19946;SDS011;10135;50.702;7.276;2023-05-07T07:37:35;1.90;;;1.80;;
19946;SDS011;10135;50.702;7.276;2023-05-07T07:39:36;1.80;;;1.70;;
19946;SDS011;10135;50.702;7.276;2023-05-07T07:41:41;1.70;;;1.47;;
19946;SDS011;10135;50.702;7.276;2023-05-07T07:43:41;1.67;;;1.57;;
19946;SDS011;10135;50.702;7.276;2023-05-07T07:45:42;1.70;;;1.60;;
19946;SDS011;10135;50.702;7.276;2023-05-07T07:47:43;1.53;;;1.43;;
19946;SDS011;10135;50.702;7.276;2023-05-07T07:49:43;1.37;;;1.37;;
19946;SDS011;10135;50.702;7.276;2023-05-07T07:51:44;1.73;;;1.63;;
19946;SDS011;10135;50.702;7.276;2023-05-07T07:53:45;1.67;;;1.67;;
19946;SDS011;10135;50.702;7.276;2023-05-07T07:55:46;1.60;;;1.50;;
19946;SDS011;10135;50.702;7.276;2023-05-07T07:57:46;1.52;;;1.50;;
19946;SDS011;10135;50.702;7.276;2023-05-07T07:59:47;2.30;;;1.60;;
19946;SDS011;10135;50.702;7.276;2023-05-07T08:01:48;1.70;;;1.60;;
19946;SDS011;10135;50.702;7.276;2023-05-07T08:03:50;1.50;;;1.50;;
19946;SDS011;10135;50.702;7.276;2023-05-07T08:05:50;1.40;;;1.40;;
19946;SDS011;10135;50.702;7.276;2023-05-07T08:07:51;1.27;;;1.27;;
19946;SDS011;10135;50.702;7.276;2023-05-07T08:09:53;1.60;;;1.60;;
19946;SDS011;10135;50.702;7.276;2023-05-07T08:11:53;1.50;;;1.50;;
19946;SDS011;10135;50.702;7.276;2023-05-07T08:13:54;1.92;;;1.83;;
19946;SDS011;10135;50.702;7.276;2023-05-07T08:15:56;1.48;;;1.45;;
19946;SDS011;10135;50.702;7.276;2023-05-07T08:17:57;2.00;;;1.90;;
19946;SDS011;10135;50.702;7.276;2023-05-07T08:20:00;1.55;;;1.52;;
19946;SDS011;10135;50.702;7.276;2023-05-07T08:22:01;1.45;;;1.40;;
19946;SDS011;10135;50.702;7.276;2023-05-07T08:24:05;1.55;;;1.55;;
19946;SDS011;10135;50.702;7.276;2023-05-07T08:26:07;1.85;;;1.60;;
19946;SDS011;10135;50.702;7.276;2023-05-07T08:28:08;1.30;;;1.30;;
19946;SDS011;10135;50.702;7.276;2023-05-07T08:30:09;1.48;;;1.40;;
19946;SDS011;10135;50.702;7.276;2023-05-07T08:32:10;1.65;;;1.55;;
19946;SDS011;10135;50.702;7.276;2023-05-07T08:34:11;1.50;;;1.50;;
19946;SDS011;10135;50.702;7.276;2023-05-07T08:36:11;1.40;;;1.40;;
19946;SDS011;10135;50.702;7.276;2023-05-07T08:38:12;1.63;;;1.52;;
19946;SDS011;10135;50.702;7.276;2023-05-07T08:40:13;3.70;;;1.50;;
19946;SDS011;10135;50.702;7.276;2023-05-07T08:42:13;1.58;;;1.58;;
19946;SDS011;10135;50.702;7.276;2023-05-07T08:44:17;1.45;;;1.40;;
19946;SDS011;10135;50.702;7.276;2023-05-07T08:46:22;1.73;;;1.63;;
19946;SDS011;10135;50.702;7.276;2023-05-07T08:48:30;1.60;;;1.50;;
19946;SDS011;10135;50.702;7.276;2023-05-07T08:50:33;1.83;;;1.40;;
19946;SDS011;10135;50.702;7.276;2023-05-07T08:52:36;1.60;;;1.50;;
19946;SDS011;10135;50.702;7.276;2023-05-07T08:54:37;1.30;;;1.30;;
19946;SDS011;10135;50.702;7.276;2023-05-07T08:56:38;1.52;;;1.42;;
19946;SDS011;10135;50.702;7.276;2023-05-07T08:58:39;1.92;;;1.83;;
19946;SDS011;10135;50.702;7.276;2023-05-07T09:00:40;1.48;;;1.48;;
19946;SDS011;10135;50.702;7.276;2023-05-07T09:02:42;1.65;;;1.58;;
19946;SDS011;10135;50.702;7.276;2023-05-07T09:04:43;1.58;;;1.48;;
19946;SDS011;10135;50.702;7.276;2023-05-07T09:06:43;1.52;;;1.42;;
19946;SDS011;10135;50.702;7.276;2023-05-07T09:08:49;1.60;;;1.60;;
19946;SDS011;10135;50.702;7.276;2023-05-07T09:10:54;1.40;;;1.40;;
19946;SDS011;10135;50.702;7.276;2023-05-07T09:12:55;1.58;;;1.48;;
19946;SDS011;10135;50.702;7.276;2023-05-07T09:14:56;3.15;;;1.60;;
19946;SDS011;10135;50.702;7.276;2023-05-07T09:16:57;1.50;;;1.40;;
19946;SDS011;10135;50.702;7.276;2023-05-07T09:18:58;1.45;;;1.45;;
19946;SDS011;10135;50.702;7.276;2023-05-07T09:21:00;1.60;;;1.50;;
19946;SDS011;10135;50.702;7.276;2023-05-07T09:23:01;1.60;;;1.50;;
19946;SDS011;10135;50.702;7.276;2023-05-07T09:25:01;2.15;;;2.05;;
19946;SDS011;10135;50.702;7.276;2023-05-07T09:27:02;1.70;;;1.60;;
19946;SDS011;10135;50.702;7.276;2023-05-07T09:29:05;1.80;;;1.70;;
19946;SDS011;10135;50.702;7.276;2023-05-07T09:31:08;1.70;;;1.60;;
19946;SDS011;10135;50.702;7.276;2023-05-07T09:33:10;2.95;;;1.58;;
19946;SDS011;10135;50.702;7.276;2023-05-07T09:35:14;1.60;;;1.50;;
19946;SDS011;10135;50.702;7.276;2023-05-07T09:37:21;1.50;;;1.40;;
19946;SDS011;10135;50.702;7.276;2023-05-07T09:39:23;1.48;;;1.40;;
19946;SDS011;10135;50.702;7.276;2023-05-07T09:41:24;1.42;;;1.42;;
19946;SDS011;10135;50.702;7.276;2023-05-07T09:43:26;1.35;;;1.35;;
19946;SDS011;10135;50.702;7.276;2023-05-07T09:45:31;1.42;;;1.42;;
19946;SDS011;10135;50.702;7.276;2023-05-07T09:47:32;1.30;;;1.30;;
19946;SDS011;10135;50.702;7.276;2023-05-07T09:49:41;1.35;;;1.35;;
19946;SDS011;10135;50.702;7.276;2023-05-07T09:51:49;4.35;;;1.65;;
19946;SDS011;10135;50.702;7.276;2023-05-07T09:53:52;1.23;;;1.20;;
19946;SDS011;10135;50.702;7.276;2023-05-07T09:55:53;1.45;;;1.40;;
19946;SDS011;10135;50.702;7.276;2023-05-07T09:57:56;1.35;;;1.30;;
19946;SDS011;10135;50.702;7.276;2023-05-07T09:59:58;1.45;;;1.35;;
19946;SDS011;10135;50.702;7.276;2023-05-07T10:02:04;1.23;;;1.23;;
19946;SDS011;10135;50.702;7.276;2023-05-07T10:04:06;1.20;;;1.20;;
19946;SDS011;10135;50.702;7.276;2023-05-07T10:06:08;1.60;;;1.50;;
19946;SDS011;10135;50.702;7.276;2023-05-07T10:08:10;1.77;;;1.42;;
19946;SDS011;10135;50.702;7.276;2023-05-07T10:10:11;1.27;;;1.27;;
19946;SDS011;10135;50.702;7.276;2023-05-07T10:12:12;1.50;;;1.40;;
19946;SDS011;10135;50.702;7.276;2023-05-07T10:14:14;1.20;;;1.20;;
19946;SDS011;10135;50.702;7.276;2023-05-07T10:16:15;1.20;;;1.20;;
19946;SDS011;10135;50.702;7.276;2023-05-07T10:18:17;1.30;;;1.17;;
19946;SDS011;10135;50.702;7.276;2023-05-07T10:20:22;1.60;;;1.50;;
19946;SDS011;10135;50.702;7.276;2023-05-07T10:22:24;1.40;;;1.40;;
19946;SDS011;10135;50.702;7.276;2023-05-07T10:24:29;1.40;;;1.27;;
19946;SDS011;10135;50.702;7.276;2023-05-07T10:26:33;1.20;;;1.20;;
19946;SDS011;10135;50.702;7.276;2023-05-07T10:28:39;1.30;;;1.20;;
19946;SDS011;10135;50.702;7.276;2023-05-07T10:33:06;4.05;;;1.20;;
19946;SDS011;10135;50.702;7.276;2023-05-07T10:35:17;1.50;;;1.40;;
19946;SDS011;10135;50.702;7.276;2023-05-07T10:37:25;1.27;;;1.27;;
19946;SDS011;10135;50.702;7.276;2023-05-07T10:39:26;1.23;;;1.23;;
19946;SDS011;10135;50.702;7.276;2023-05-07T10:41:27;1.38;;;1.10;;
19946;SDS011;10135;50.702;7.276;2023-05-07T10:43:38;1.50;;;1.42;;
19946;SDS011;10135;50.702;7.276;2023-05-07T10:45:41;1.52;;;1.30;;
19946;SDS011;10135;50.702;7.276;2023-05-07T10:52:17;1.13;;;1.10;;
19946;SDS011;10135;50.702;7.276;2023-05-07T10:54:21;1.15;;;1.10;;
19946;SDS011;10135;50.702;7.276;2023-05-07T10:56:24;1.45;;;1.35;;
19946;SDS011;10135;50.702;7.276;2023-05-07T10:58:26;1.23;;;1.20;;
19946;SDS011;10135;50.702;7.276;2023-05-07T11:07:25;1.02;;;1.02;;
19946;SDS011;10135;50.702;7.276;2023-05-07T11:09:53;1.13;;;1.10;;
19946;SDS011;10135;50.702;7.276;2023-05-07T11:11:51;1.15;;;1.15;;
19946;SDS011;10135;50.702;7.276;2023-05-07T11:13:52;1.33;;;1.27;;
19946;SDS011;10135;50.702;7.276;2023-05-07T11:15:53;1.20;;;1.10;;
19946;SDS011;10135;50.702;7.276;2023-05-07T11:17:57;1.17;;;1.17;;
19946;SDS011;10135;50.702;7.276;2023-05-07T11:20:00;1.67;;;1.17;;
19946;SDS011;10135;50.702;7.276;2023-05-07T11:22:02;1.25;;;1.13;;
19946;SDS011;10135;50.702;7.276;2023-05-07T11:24:04;1.23;;;1.23;;
19946;SDS011;10135;50.702;7.276;2023-05-07T11:26:07;1.55;;;1.40;;
19946;SDS011;10135;50.702;7.276;2023-05-07T11:28:09;1.05;;;1.05;;
19946;SDS011;10135;50.702;7.276;2023-05-07T11:30:16;1.25;;;1.25;;
19946;SDS011;10135;50.702;7.276;2023-05-07T11:32:27;1.25;;;1.23;;
19946;SDS011;10135;50.702;7.276;2023-05-07T11:34:30;1.48;;;1.35;;
19946;SDS011;10135;50.702;7.276;2023-05-07T11:36:32;1.48;;;1.27;;
19946;SDS011;10135;50.702;7.276;2023-05-07T11:38:36;1.20;;;1.20;;
19946;SDS011;10135;50.702;7.276;2023-05-07T11:40:50;1.50;;;1.40;;
19946;SDS011;10135;50.702;7.276;2023-05-07T11:43:10;1.30;;;1.20;;
19946;SDS011;10135;50.702;7.276;2023-05-07T11:45:11;1.15;;;1.05;;
19946;SDS011;10135;50.702;7.276;2023-05-07T11:47:24;1.85;;;1.30;;
19946;SDS011;10135;50.702;7.276;2023-05-07T11:49:27;2.42;;;1.70;;
19946;SDS011;10135;50.702;7.276;2023-05-07T11:51:29;1.70;;;1.60;;
19946;SDS011;10135;50.702;7.276;2023-05-07T11:53:37;1.67;;;1.58;;
19946;SDS011;10135;50.702;7.276;2023-05-07T11:55:40;1.30;;;1.20;;
19946;SDS011;10135;50.702;7.276;2023-05-07T11:57:42;4.25;;;1.63;;
19946;SDS011;10135;50.702;7.276;2023-05-07T11:59:42;1.90;;;1.48;;
19946;SDS011;10135;50.702;7.276;2023-05-07T12:01:49;1.88;;;1.55;;
19946;SDS011;10135;50.702;7.276;2023-05-07T12:03:50;1.60;;;1.50;;
19946;SDS011;10135;50.702;7.276;2023-05-07T12:05:50;1.73;;;1.63;;
19946;SDS011;10135;50.702;7.276;2023-05-07T12:07:55;3.25;;;1.90;;
19946;SDS011;10135;50.702;7.276;2023-05-07T12:09:57;4.90;;;2.08;;
19946;SDS011;10135;50.702;7.276;2023-05-07T12:12:02;5.40;;;2.30;;
19946;SDS011;10135;50.702;7.276;2023-05-07T12:14:04;4.43;;;2.10;;
19946;SDS011;10135;50.702;7.276;2023-05-07T12:16:05;5.90;;;2.40;;
19946;SDS011;10135;50.702;7.276;2023-05-07T12:18:07;3.08;;;2.25;;
19946;SDS011;10135;50.702;7.276;2023-05-07T12:20:08;2.55;;;2.35;;
19946;SDS011;10135;50.702;7.276;2023-05-07T12:22:10;4.10;;;2.10;;
19946;SDS011;10135;50.702;7.276;2023-05-07T12:24:13;4.95;;;2.00;;
19946;SDS011;10135;50.702;7.276;2023-05-07T12:26:15;2.67;;;2.00;;
19946;SDS011;10135;50.702;7.276;2023-05-07T12:28:16;4.10;;;2.10;;
19946;SDS011;10135;50.702;7.276;2023-05-07T12:30:18;5.93;;;1.90;;
19946;SDS011;10135;50.702;7.276;2023-05-07T12:32:21;2.63;;;2.15;;
19946;SDS011;10135;50.702;7.276;2023-05-07T12:34:22;1.70;;;1.60;;
19946;SDS011;10135;50.702;7.276;2023-05-07T12:36:23;2.67;;;1.60;;
19946;SDS011;10135;50.702;7.276;2023-05-07T12:38:24;1.80;;;1.70;;
19946;SDS011;10135;50.702;7.276;2023-05-07T12:40:41;3.15;;;2.00;;
19946;SDS011;10135;50.702;7.276;2023-05-07T12:42:47;2.90;;;1.83;;
19946;SDS011;10135;50.702;7.276;2023-05-07T12:44:56;1.60;;;1.60;;
19946;SDS011;10135;50.702;7.276;2023-05-07T12:46:57;1.85;;;1.67;;
19946;SDS011;10135;50.702;7.276;2023-05-07T12:48:58;2.35;;;1.60;;
19946;SDS011;10135;50.702;7.276;2023-05-07T12:50:59;1.60;;;1.50;;
19946;SDS011;10135;50.702;7.276;2023-05-07T12:53:05;1.70;;;1.60;;
19946;SDS011;10135;50.702;7.276;2023-05-07T12:55:12;1.80;;;1.70;;
19946;SDS011;10135;50.702;7.276;2023-05-07T12:57:15;1.85;;;1.75;;
19946;SDS011;10135;50.702;7.276;2023-05-07T12:59:30;1.67;;;1.58;;
19946;SDS011;10135;50.702;7.276;2023-05-07T13:01:36;1.48;;;1.48;;
19946;SDS011;10135;50.702;7.276;2023-05-07T13:03:37;1.88;;;1.67;;
19946;SDS011;10135;50.702;7.276;2023-05-07T13:05:38;2.35;;;1.92;;
19946;SDS011;10135;50.702;7.276;2023-05-07T13:07:39;2.08;;;1.98;;
19946;SDS011;10135;50.702;7.276;2023-05-07T13:09:41;4.45;;;1.65;;
19946;SDS011;10135;50.702;7.276;2023-05-07T13:11:42;1.63;;;1.52;;
19946;SDS011;10135;50.702;7.276;2023-05-07T13:13:42;1.80;;;1.70;;
19946;SDS011;10135;50.702;7.276;2023-05-07T13:15:43;2.60;;;1.33;;
19946;SDS011;10135;50.702;7.276;2023-05-07T13:17:44;1.73;;;1.63;;
19946;SDS011;10135;50.702;7.276;2023-05-07T13:19:44;1.42;;;1.42;;
19946;SDS011;10135;50.702;7.276;2023-05-07T13:21:45;1.60;;;1.55;;
19946;SDS011;10135;50.702;7.276;2023-05-07T13:23:46;1.75;;;1.67;;
19946;SDS011;10135;50.702;7.276;2023-05-07T13:25:47;1.77;;;1.67;;
19946;SDS011;10135;50.702;7.276;2023-05-07T13:27:48;1.70;;;1.60;;
19946;SDS011;10135;50.702;7.276;2023-05-07T13:29:49;1.60;;;1.58;;
19946;SDS011;10135;50.702;7.276;2023-05-07T13:31:49;1.52;;;1.48;;
19946;SDS011;10135;50.702;7.276;2023-05-07T13:33:50;1.48;;;1.40;;
19946;SDS011;10135;50.702;7.276;2023-05-07T13:35:52;1.50;;;1.40;;
19946;SDS011;10135;50.702;7.276;2023-05-07T13:37:53;1.40;;;1.40;;
19946;SDS011;10135;50.702;7.276;2023-05-07T13:39:54;1.65;;;1.55;;
19946;SDS011;10135;50.702;7.276;2023-05-07T13:41:55;1.60;;;1.60;;
19946;SDS011;10135;50.702;7.276;2023-05-07T13:43:55;1.70;;;1.60;;
19946;SDS011;10135;50.702;7.276;2023-05-07T13:45:56;1.85;;;1.50;;
19946;SDS011;10135;50.702;7.276;2023-05-07T13:47:57;1.40;;;1.40;;
19946;SDS011;10135;50.702;7.276;2023-05-07T13:49:58;2.05;;;1.60;;
19946;SDS011;10135;50.702;7.276;2023-05-07T13:51:58;1.60;;;1.50;;
19946;SDS011;10135;50.702;7.276;2023-05-07T13:53:59;1.60;;;1.50;;
19946;SDS011;10135;50.702;7.276;2023-05-07T13:56:00;1.67;;;1.60;;
19946;SDS011;10135;50.702;7.276;2023-05-07T13:58:01;1.52;;;1.42;;
19946;SDS011;10135;50.702;7.276;2023-05-07T14:00:03;1.52;;;1.52;;
19946;SDS011;10135;50.702;7.276;2023-05-07T14:02:05;1.75;;;1.67;;
19946;SDS011;10135;50.702;7.276;2023-05-07T14:04:06;1.45;;;1.45;;
19946;SDS011;10135;50.702;7.276;2023-05-07T14:06:07;1.50;;;1.50;;
19946;SDS011;10135;50.702;7.276;2023-05-07T14:08:08;1.58;;;1.48;;
19946;SDS011;10135;50.702;7.276;2023-05-07T14:10:09;2.45;;;1.63;;
19946;SDS011;10135;50.702;7.276;2023-05-07T14:12:10;1.90;;;1.80;;
19946;SDS011;10135;50.702;7.276;2023-05-07T14:14:11;1.73;;;1.63;;
19946;SDS011;10135;50.702;7.276;2023-05-07T14:16:12;1.75;;;1.40;;
19946;SDS011;10135;50.702;7.276;2023-05-07T14:18:13;1.70;;;1.67;;
19946;SDS011;10135;50.702;7.276;2023-05-07T14:20:15;1.80;;;1.45;;
19946;SDS011;10135;50.702;7.276;2023-05-07T14:22:15;1.58;;;1.58;;
19946;SDS011;10135;50.702;7.276;2023-05-07T14:24:16;2.58;;;1.80;;
19946;SDS011;10135;50.702;7.276;2023-05-07T14:26:17;1.58;;;1.48;;
19946;SDS011;10135;50.702;7.276;2023-05-07T14:28:18;1.60;;;1.50;;
19946;SDS011;10135;50.702;7.276;2023-05-07T14:30:19;1.90;;;1.80;;
19946;SDS011;10135;50.702;7.276;2023-05-07T14:32:20;1.90;;;1.80;;
19946;SDS011;10135;50.702;7.276;2023-05-07T14:34:22;2.25;;;1.90;;
19946;SDS011;10135;50.702;7.276;2023-05-07T14:36:23;2.17;;;2.08;;
19946;SDS011;10135;50.702;7.276;2023-05-07T14:38:25;1.60;;;1.60;;
19946;SDS011;10135;50.702;7.276;2023-05-07T14:40:26;1.65;;;1.65;;
19946;SDS011;10135;50.702;7.276;2023-05-07T14:42:27;1.60;;;1.50;;
19946;SDS011;10135;50.702;7.276;2023-05-07T14:44:27;1.75;;;1.63;;
19946;SDS011;10135;50.702;7.276;2023-05-07T14:46:28;1.50;;;1.50;;
19946;SDS011;10135;50.702;7.276;2023-05-07T14:48:29;1.70;;;1.60;;
19946;SDS011;10135;50.702;7.276;2023-05-07T14:50:30;1.85;;;1.75;;
19946;SDS011;10135;50.702;7.276;2023-05-07T14:52:33;1.65;;;1.55;;
19946;SDS011;10135;50.702;7.276;2023-05-07T14:54:34;1.60;;;1.50;;
19946;SDS011;10135;50.702;7.276;2023-05-07T14:56:35;1.65;;;1.55;;
19946;SDS011;10135;50.702;7.276;2023-05-07T14:58:36;1.42;;;1.40;;
19946;SDS011;10135;50.702;7.276;2023-05-07T15:00:37;1.58;;;1.48;;
19946;SDS011;10135;50.702;7.276;2023-05-07T15:02:37;1.70;;;1.55;;
19946;SDS011;10135;50.702;7.276;2023-05-07T15:04:38;1.58;;;1.58;;
19946;SDS011;10135;50.702;7.276;2023-05-07T15:06:45;1.88;;;1.77;;
19946;SDS011;10135;50.702;7.276;2023-05-07T15:08:46;1.85;;;1.75;;
19946;SDS011;10135;50.702;7.276;2023-05-07T15:10:48;2.70;;;1.88;;
19946;SDS011;10135;50.702;7.276;2023-05-07T15:12:49;2.72;;;1.77;;
19946;SDS011;10135;50.702;7.276;2023-05-07T15:14:49;3.53;;;2.00;;
19946;SDS011;10135;50.702;7.276;2023-05-07T15:16:50;2.40;;;2.20;;
19946;SDS011;10135;50.702;7.276;2023-05-07T15:18:51;2.28;;;2.08;;
19946;SDS011;10135;50.702;7.276;2023-05-07T15:20:51;2.05;;;1.85;;
19946;SDS011;10135;50.702;7.276;2023-05-07T15:22:52;2.65;;;2.05;;
19946;SDS011;10135;50.702;7.276;2023-05-07T15:24:53;3.58;;;2.30;;
19946;SDS011;10135;50.702;7.276;2023-05-07T15:26:55;2.30;;;2.03;;
19946;SDS011;10135;50.702;7.276;2023-05-07T15:28:55;2.13;;;1.90;;
19946;SDS011;10135;50.702;7.276;2023-05-07T15:30:57;2.55;;;2.35;;
19946;SDS011;10135;50.702;7.276;2023-05-07T15:32:57;3.40;;;2.42;;
19946;SDS011;10135;50.702;7.276;2023-05-07T15:34:58;2.08;;;1.98;;
19946;SDS011;10135;50.702;7.276;2023-05-07T15:36:59;2.20;;;2.05;;
19946;SDS011;10135;50.702;7.276;2023-05-07T15:38:59;2.38;;;1.85;;
19946;SDS011;10135;50.702;7.276;2023-05-07T15:41:02;2.22;;;1.90;;
19946;SDS011;10135;50.702;7.276;2023-05-07T15:43:03;2.13;;;2.03;;
19946;SDS011;10135;50.702;7.276;2023-05-07T15:45:04;3.42;;;2.28;;
19946;SDS011;10135;50.702;7.276;2023-05-07T15:47:05;2.05;;;1.95;;
19946;SDS011;10135;50.702;7.276;2023-05-07T15:49:06;2.75;;;2.30;;
19946;SDS011;10135;50.702;7.276;2023-05-07T15:51:07;2.60;;;2.30;;
19946;SDS011;10135;50.702;7.276;2023-05-07T15:53:08;4.70;;;2.75;;
19946;SDS011;10135;50.702;7.276;2023-05-07T15:55:09;6.78;;;3.30;;
19946;SDS011;10135;50.702;7.276;2023-05-07T15:57:10;5.32;;;3.45;;
19946;SDS011;10135;50.702;7.276;2023-05-07T15:59:11;2.90;;;2.70;;
19946;SDS011;10135;50.702;7.276;2023-05-07T16:01:12;3.63;;;2.50;;
19946;SDS011;10135;50.702;7.276;2023-05-07T16:03:12;3.20;;;2.65;;
19946;SDS011;10135;50.702;7.276;2023-05-07T16:05:13;3.15;;;2.88;;
19946;SDS011;10135;50.702;7.276;2023-05-07T16:07:13;3.58;;;2.90;;
19946;SDS011;10135;50.702;7.276;2023-05-07T16:09:14;5.65;;;2.90;;
19946;SDS011;10135;50.702;7.276;2023-05-07T16:11:15;3.38;;;2.80;;
19946;SDS011;10135;50.702;7.276;2023-05-07T16:13:16;4.97;;;3.00;;
19946;SDS011;10135;50.702;7.276;2023-05-07T16:15:18;4.90;;;2.50;;
19946;SDS011;10135;50.702;7.276;2023-05-07T16:17:18;3.63;;;2.53;;
19946;SDS011;10135;50.702;7.276;2023-05-07T16:19:19;2.60;;;2.40;;
19946;SDS011;10135;50.702;7.276;2023-05-07T16:21:20;4.05;;;2.70;;
19946;SDS011;10135;50.702;7.276;2023-05-07T16:23:21;2.78;;;2.55;;
19946;SDS011;10135;50.702;7.276;2023-05-07T16:25:21;2.60;;;2.40;;
19946;SDS011;10135;50.702;7.276;2023-05-07T16:27:22;4.75;;;2.70;;
19946;SDS011;10135;50.702;7.276;2023-05-07T16:29:23;2.95;;;2.70;;
19946;SDS011;10135;50.702;7.276;2023-05-07T16:31:23;4.45;;;2.90;;
19946;SDS011;10135;50.702;7.276;2023-05-07T16:33:24;3.45;;;3.15;;
19946;SDS011;10135;50.702;7.276;2023-05-07T16:35:25;3.42;;;3.00;;
19946;SDS011;10135;50.702;7.276;2023-05-07T16:37:26;5.00;;;3.28;;
19946;SDS011;10135;50.702;7.276;2023-05-07T16:39:26;4.10;;;3.40;;
19946;SDS011;10135;50.702;7.276;2023-05-07T16:41:27;3.33;;;3.03;;
19946;SDS011;10135;50.702;7.276;2023-05-07T16:43:28;4.60;;;3.17;;
19946;SDS011;10135;50.702;7.276;2023-05-07T16:45:28;5.68;;;3.35;;
19946;SDS011;10135;50.702;7.276;2023-05-07T16:47:29;5.17;;;3.30;;
19946;SDS011;10135;50.702;7.276;2023-05-07T16:49:30;3.22;;;2.90;;
19946;SDS011;10135;50.702;7.276;2023-05-07T16:51:32;3.92;;;2.92;;
19946;SDS011;10135;50.702;7.276;2023-05-07T16:53:33;5.10;;;3.15;;
19946;SDS011;10135;50.702;7.276;2023-05-07T16:55:35;4.00;;;3.30;;
19946;SDS011;10135;50.702;7.276;2023-05-07T16:57:38;5.83;;;3.13;;
19946;SDS011;10135;50.702;7.276;2023-05-07T16:59:38;3.72;;;3.33;;
19946;SDS011;10135;50.702;7.276;2023-05-07T17:01:39;7.20;;;3.40;;
19946;SDS011;10135;50.702;7.276;2023-05-07T17:03:41;5.43;;;3.20;;
19946;SDS011;10135;50.702;7.276;2023-05-07T17:05:42;3.85;;;3.28;;
19946;SDS011;10135;50.702;7.276;2023-05-07T17:07:42;5.60;;;3.80;;
19946;SDS011;10135;50.702;7.276;2023-05-07T17:09:43;4.53;;;3.65;;
19946;SDS011;10135;50.702;7.276;2023-05-07T17:11:44;4.47;;;3.57;;
19946;SDS011;10135;50.702;7.276;2023-05-07T17:13:44;4.70;;;4.00;;
19946;SDS011;10135;50.702;7.276;2023-05-07T17:15:45;6.00;;;3.90;;
19946;SDS011;10135;50.702;7.276;2023-05-07T17:17:46;3.83;;;3.53;;
19946;SDS011;10135;50.702;7.276;2023-05-07T17:19:47;3.40;;;3.10;;
19946;SDS011;10135;50.702;7.276;2023-05-07T17:21:48;4.07;;;3.67;;
19946;SDS011;10135;50.702;7.276;2023-05-07T17:23:48;9.23;;;3.60;;
19946;SDS011;10135;50.702;7.276;2023-05-07T17:25:49;3.70;;;3.40;;
19946;SDS011;10135;50.702;7.276;2023-05-07T17:27:49;3.90;;;3.13;;
19946;SDS011;10135;50.702;7.276;2023-05-07T17:29:50;3.72;;;3.38;;
19946;SDS011;10135;50.702;7.276;2023-05-07T17:31:51;3.60;;;3.27;;
19946;SDS011;10135;50.702;7.276;2023-05-07T17:33:52;6.40;;;3.13;;
19946;SDS011;10135;50.702;7.276;2023-05-07T17:35:52;5.03;;;3.30;;
19946;SDS011;10135;50.702;7.276;2023-05-07T17:37:54;7.75;;;3.70;;
19946;SDS011;10135;50.702;7.276;2023-05-07T17:39:54;3.42;;;3.15;;
19946;SDS011;10135;50.702;7.276;2023-05-07T17:41:55;6.63;;;3.23;;
19946;SDS011;10135;50.702;7.276;2023-05-07T17:43:55;4.30;;;3.40;;
19946;SDS011;10135;50.702;7.276;2023-05-07T17:45:56;6.90;;;3.17;;
19946;SDS011;10135;50.702;7.276;2023-05-07T17:47:57;3.43;;;2.80;;
19946;SDS011;10135;50.702;7.276;2023-05-07T17:49:57;4.33;;;2.97;;
19946;SDS011;10135;50.702;7.276;2023-05-07T17:51:58;3.78;;;2.70;;
19946;SDS011;10135;50.702;7.276;2023-05-07T17:53:59;2.73;;;2.50;;
19946;SDS011;10135;50.702;7.276;2023-05-07T17:55:59;4.00;;;2.60;;
19946;SDS011;10135;50.702;7.276;2023-05-07T17:58:00;2.75;;;2.60;;
19946;SDS011;10135;50.702;7.276;2023-05-07T18:00:02;2.83;;;2.40;;